Time;durP1;ratioP1;P1;durP2;ratioP2;P2;SDS_P1;SDS_P2;PMS_P1;PMS_P2;Temp;Humidity;BMP_temperature;BMP_pressure;BME280_temperature;BME280_humidity;BME280_pressure;Samples;Min_cycle;Max_cycle;Signal;HPM_P1;HPM_P2
2022/04/23 00:00:54;;;;;;;10.70;9.60;;;;;;;;;;5110441;28;20828;-76
2022/04/23 00:03:21;;;;;;;12.37;10.63;;;;;;;;;;5111506;28;20489;-76
2022/04/23 00:05:50;;;;;;;11.80;10.60;;;;;;;;;;5111142;28;21035;-77
2022/04/23 00:08:17;;;;;;;10.97;9.97;;;;;;;;;;5127244;28;20462;-76
2022/04/23 00:10:44;;;;;;;12.17;10.80;;;;;;;;;;5133895;28;20553;-76
2022/04/23 00:13:11;;;;;;;12.60;11.30;;;;;;;;;;5116641;28;20550;-76
2022/04/23 00:15:38;;;;;;;11.77;10.40;;;;;;;;;;5129156;28;20421;-77
2022/04/23 00:18:07;;;;;;;12.50;11.17;;;;;;;;;;5128594;27;20826;-77
2022/04/23 00:20:35;;;;;;;12.50;10.97;;;;;;;;;;5131444;28;20464;-76
2022/04/23 00:23:05;;;;;;;12.83;11.50;;;;;;;;;;5125802;28;20462;-76
2022/04/23 00:25:32;;;;;;;12.23;10.93;;;;;;;;;;5129034;27;20970;-77
2022/04/23 00:27:59;;;;;;;12.07;10.83;;;;;;;;;;5115182;28;20446;-76
2022/04/23 00:30:26;;;;;;;13.03;11.73;;;;;;;;;;5114711;28;20481;-76
2022/04/23 00:32:54;;;;;;;13.47;11.30;;;;;;;;;;5117502;28;20434;-76
2022/04/23 00:35:21;;;;;;;13.37;11.27;;;;;;;;;;5116402;28;20446;-77
2022/04/23 00:37:48;;;;;;;12.43;11.27;;;;;;;;;;5128255;27;20941;-75
2022/04/23 00:40:17;;;;;;;12.73;11.50;;;;;;;;;;5132294;27;20433;-76
2022/04/23 00:42:46;;;;;;;13.20;11.80;;;;;;;;;;5134400;27;20473;-77
2022/04/23 00:45:13;;;;;;;13.53;12.20;;;;;;;;;;5135338;27;20437;-77
2022/04/23 00:47:40;;;;;;;14.10;12.60;;;;;;;;;;5114628;28;20564;-76
2022/04/23 00:50:08;;;;;;;12.80;11.50;;;;;;;;;;5115671;28;20533;-76
2022/04/23 00:52:35;;;;;;;13.47;12.17;;;;;;;;;;5115391;27;20461;-76
2022/04/23 00:55:03;;;;;;;14.53;12.87;;;;;;;;;;5137538;27;20437;-77
2022/04/23 00:57:31;;;;;;;13.53;11.80;;;;;;;;;;5118874;27;20461;-76
2022/04/23 00:59:59;;;;;;;12.90;11.33;;;;;;;;;;5122571;27;20437;-76
2022/04/23 01:02:26;;;;;;;15.03;12.67;;;;;;;;;;5130105;27;20461;-76
2022/04/23 01:04:54;;;;;;;14.47;12.90;;;;;;;;;;5133895;27;20438;-76
2022/04/23 01:07:21;;;;;;;13.50;12.20;;;;;;;;;;5114651;27;20579;-75
2022/04/23 01:09:48;;;;;;;15.13;13.57;;;;;;;;;;5114654;28;20449;-77
2022/04/23 01:12:17;;;;;;;15.00;13.47;;;;;;;;;;5114006;27;20940;-76
2022/04/23 01:14:59;;;;;;;16.13;11.87;;;;;;;;;;5134351;27;20449;-75
2022/04/23 01:17:28;;;;;;;13.40;12.10;;;;;;;;;;5116260;27;20469;-76
2022/04/23 01:19:55;;;;;;;14.77;13.17;;;;;;;;;;5123753;27;20462;-76
2022/04/23 01:22:24;;;;;;;15.20;13.03;;;;;;;;;;5136145;27;20460;-76
2022/04/23 01:24:53;;;;;;;14.67;13.23;;;;;;;;;;5129421;27;20504;-77
2022/04/23 01:27:22;;;;;;;14.70;13.10;;;;;;;;;;5132678;27;20950;-76
2022/04/23 01:29:49;;;;;;;13.87;12.47;;;;;;;;;;5126778;27;20511;-76
2022/04/23 01:32:17;;;;;;;15.03;13.00;;;;;;;;;;5113727;28;20462;-76
2022/04/23 01:34:44;;;;;;;16.67;14.90;;;;;;;;;;5113973;27;20442;-76
2022/04/23 01:37:12;;;;;;;14.97;13.47;;;;;;;;;;5114283;28;20797;-77
2022/04/23 01:39:40;;;;;;;14.30;12.80;;;;;;;;;;5114440;27;20549;-76
2022/04/23 01:42:07;;;;;;;15.23;13.50;;;;;;;;;;5115676;28;20454;-77
2022/04/23 01:44:35;;;;;;;16.03;14.40;;;;;;;;;;5114729;28;22313;-77
2022/04/23 01:47:02;;;;;;;16.77;13.90;;;;;;;;;;5129553;27;20462;-76
2022/04/23 01:49:29;;;;;;;15.70;14.10;;;;;;;;;;5130299;27;20437;-76
2022/04/23 01:51:56;;;;;;;17.10;15.30;;;;;;;;;;5133715;27;20461;-76
2022/04/23 01:54:23;;;;;;;15.60;14.10;;;;;;;;;;5120153;27;20545;-76
2022/04/23 01:56:52;;;;;;;17.13;15.33;;;;;;;;;;5113836;28;20431;-75
2022/04/23 01:59:19;;;;;;;15.50;13.87;;;;;;;;;;5113540;28;20447;-77
2022/04/23 02:01:48;;;;;;;17.07;13.63;;;;;;;;;;5113502;27;20967;-76
2022/04/23 02:04:15;;;;;;;17.00;14.60;;;;;;;;;;5114629;28;20954;-75
2022/04/23 02:06:42;;;;;;;15.93;14.10;;;;;;;;;;5115151;28;20472;-77
2022/04/23 02:09:10;;;;;;;17.03;14.57;;;;;;;;;;5122480;27;21054;-77
2022/04/23 02:11:37;;;;;;;18.93;14.83;;;;;;;;;;5131104;27;21837;-76
2022/04/23 02:14:05;;;;;;;16.47;14.57;;;;;;;;;;5123747;27;20455;-77
2022/04/23 02:16:33;;;;;;;16.00;14.37;;;;;;;;;;5112122;28;20449;-77
2022/04/23 02:19:03;;;;;;;15.37;13.40;;;;;;;;;;5112831;27;20454;-76
2022/04/23 02:21:30;;;;;;;16.47;14.77;;;;;;;;;;5113972;28;20466;-76
2022/04/23 02:23:58;;;;;;;16.90;15.00;;;;;;;;;;5112387;28;20461;-76
2022/04/23 02:26:25;;;;;;;16.47;14.77;;;;;;;;;;5114402;28;20501;-76
2022/04/23 02:28:52;;;;;;;15.57;13.97;;;;;;;;;;5114696;28;20447;-76
2022/04/23 02:31:20;;;;;;;17.23;15.00;;;;;;;;;;5119132;27;20464;-76
2022/04/23 02:33:48;;;;;;;16.80;15.10;;;;;;;;;;5127952;27;20457;-77
2022/04/23 02:36:15;;;;;;;17.53;15.60;;;;;;;;;;5131640;27;20433;-77
2022/04/23 02:38:43;;;;;;;16.73;14.20;;;;;;;;;;5117382;27;20500;-77
2022/04/23 02:41:10;;;;;;;17.73;15.87;;;;;;;;;;5112609;28;20466;-76
2022/04/23 02:43:38;;;;;;;15.87;14.17;;;;;;;;;;5112819;28;20450;-76
2022/04/23 02:46:06;;;;;;;19.33;14.97;;;;;;;;;;5113079;28;20478;-76
2022/04/23 02:48:35;;;;;;;15.97;14.27;;;;;;;;;;5112277;28;20538;-76
2022/04/23 02:51:02;;;;;;;17.47;15.00;;;;;;;;;;5114357;28;20469;-76
2022/04/23 02:53:30;;;;;;;16.37;14.73;;;;;;;;;;5112449;28;20461;-77
2022/04/23 02:55:57;;;;;;;17.50;15.77;;;;;;;;;;5130344;27;20790;-76
2022/04/23 02:58:25;;;;;;;16.23;14.43;;;;;;;;;;5128394;27;20457;-76
2022/04/23 03:00:53;;;;;;;17.30;15.60;;;;;;;;;;5135672;27;20463;-76
2022/04/23 03:03:21;;;;;;;15.90;14.30;;;;;;;;;;5125618;27;20458;-75
2022/04/23 03:05:53;;;;;;;17.83;15.97;;;;;;;;;;5110611;28;20450;-77
2022/04/23 03:08:23;;;;;;;15.60;13.90;;;;;;;;;;5111994;28;20500;-76
2022/04/23 03:10:51;;;;;;;17.07;14.93;;;;;;;;;;5112757;28;20493;-75
2022/04/23 03:13:19;;;;;;;18.40;14.80;;;;;;;;;;5113017;28;20435;-76
2022/04/23 03:15:46;;;;;;;18.30;15.43;;;;;;;;;;5116890;27;20501;-76
2022/04/23 03:18:14;;;;;;;16.47;14.73;;;;;;;;;;5130988;27;21558;-76
2022/04/23 03:20:42;;;;;;;17.17;15.00;;;;;;;;;;5126204;27;20539;-76
2022/04/23 03:23:11;;;;;;;17.80;16.00;;;;;;;;;;5132034;27;20438;-75
2022/04/23 03:25:40;;;;;;;18.57;16.13;;;;;;;;;;5124193;27;21198;-76
2022/04/23 03:28:07;;;;;;;19.03;16.00;;;;;;;;;;5112194;28;20479;-76
2022/04/23 03:30:35;;;;;;;20.60;15.50;;;;;;;;;;5111887;27;20466;-76
2022/04/23 03:33:03;;;;;;;17.07;15.27;;;;;;;;;;5111669;27;20545;-76
2022/04/23 03:35:30;;;;;;;19.37;15.73;;;;;;;;;;5113252;28;20797;-76
2022/04/23 03:37:57;;;;;;;16.70;15.00;;;;;;;;;;5113616;28;20438;-75
2022/04/23 03:40:26;;;;;;;16.83;15.10;;;;;;;;;;5120735;28;20827;-77
2022/04/23 03:42:53;;;;;;;20.63;17.20;;;;;;;;;;5129674;28;20449;-76
2022/04/23 03:45:20;;;;;;;20.03;16.00;;;;;;;;;;5124677;28;20458;-76
2022/04/23 03:47:48;;;;;;;19.47;15.77;;;;;;;;;;5111584;28;20478;-77
2022/04/23 03:50:15;;;;;;;18.00;15.40;;;;;;;;;;5110177;28;20456;-76
2022/04/23 03:52:43;;;;;;;17.73;15.83;;;;;;;;;;5112526;28;20931;-77
2022/04/23 03:55:11;;;;;;;18.97;15.43;;;;;;;;;;5109805;28;20455;-75
2022/04/23 03:57:47;;;;;;;18.17;14.37;;;;;;;;;;5111872;28;20461;-75
2022/04/23 04:00:15;;;;;;;17.57;14.90;;;;;;;;;;5126413;27;20445;-75
2022/04/23 04:02:43;;;;;;;17.60;15.80;;;;;;;;;;5137256;27;20433;-76
2022/04/23 04:05:11;;;;;;;18.37;15.77;;;;;;;;;;5132245;27;20587;-76
2022/04/23 04:07:41;;;;;;;17.97;15.07;;;;;;;;;;5134268;27;20588;-76
2022/04/23 04:10:09;;;;;;;17.00;15.20;;;;;;;;;;5118734;27;20493;-75
2022/04/23 04:12:37;;;;;;;18.23;15.67;;;;;;;;;;5115621;28;20439;-76
2022/04/23 04:15:06;;;;;;;18.67;14.67;;;;;;;;;;5115644;28;20461;-76
2022/04/23 04:17:34;;;;;;;20.03;16.30;;;;;;;;;;5116189;28;20793;-77
2022/04/23 04:20:01;;;;;;;19.97;15.27;;;;;;;;;;5115664;28;20450;-76
2022/04/23 04:22:28;;;;;;;17.50;15.73;;;;;;;;;;5117391;28;20458;-76
2022/04/23 04:24:55;;;;;;;18.47;15.50;;;;;;;;;;5115724;28;20486;-76
2022/04/23 04:27:22;;;;;;;18.13;16.30;;;;;;;;;;5131526;27;20477;-77
2022/04/23 04:29:49;;;;;;;17.03;15.20;;;;;;;;;;5134017;27;20914;-74
2022/04/23 04:32:18;;;;;;;17.57;15.77;;;;;;;;;;5132754;27;20497;-76
2022/04/23 04:34:45;;;;;;;18.80;16.30;;;;;;;;;;5115176;28;20442;-77
2022/04/23 04:37:13;;;;;;;19.33;15.50;;;;;;;;;;5114940;27;20934;-76
2022/04/23 04:39:41;;;;;;;18.13;16.23;;;;;;;;;;5115761;27;20453;-77
2022/04/23 04:42:09;;;;;;;21.97;16.50;;;;;;;;;;5114987;28;20469;-76
2022/04/23 04:44:37;;;;;;;20.87;16.40;;;;;;;;;;5129352;27;20450;-77
2022/04/23 04:47:04;;;;;;;17.33;15.53;;;;;;;;;;5131799;27;20476;-76
2022/04/23 04:49:33;;;;;;;17.80;15.90;;;;;;;;;;5115630;27;20501;-76
2022/04/23 04:52:00;;;;;;;17.67;15.77;;;;;;;;;;5114729;28;20472;-76
2022/04/23 04:54:27;;;;;;;18.00;15.27;;;;;;;;;;5114275;27;20458;-76
2022/04/23 04:56:56;;;;;;;16.47;14.73;;;;;;;;;;5115931;28;20434;-77
2022/04/23 04:59:23;;;;;;;20.83;16.60;;;;;;;;;;5114223;28;20458;-77
2022/04/23 05:01:50;;;;;;;19.93;16.00;;;;;;;;;;5116568;28;20470;-76
2022/04/23 05:04:17;;;;;;;17.20;15.40;;;;;;;;;;5114503;27;20460;-76
2022/04/23 05:06:46;;;;;;;17.23;15.50;;;;;;;;;;5124051;27;20827;-76
2022/04/23 05:09:13;;;;;;;17.97;16.07;;;;;;;;;;5132427;27;20437;-76
2022/04/23 05:11:40;;;;;;;18.50;16.60;;;;;;;;;;5126833;27;20476;-76
2022/04/23 05:14:07;;;;;;;17.53;15.70;;;;;;;;;;5114264;28;20449;-76
2022/04/23 05:16:35;;;;;;;15.53;13.93;;;;;;;;;;5113923;28;20455;-77
2022/04/23 05:19:02;;;;;;;17.73;15.10;;;;;;;;;;5115397;28;20435;-77
2022/04/23 05:21:29;;;;;;;17.00;15.13;;;;;;;;;;5113617;27;20466;-76
2022/04/23 05:23:57;;;;;;;17.13;15.30;;;;;;;;;;5136298;27;20449;-77
2022/04/23 05:26:25;;;;;;;18.60;14.80;;;;;;;;;;5136403;27;20473;-76
2022/04/23 05:28:52;;;;;;;16.73;15.07;;;;;;;;;;5131778;27;20473;-76
2022/04/23 05:31:19;;;;;;;15.93;14.23;;;;;;;;;;5131964;27;20454;-76
2022/04/23 05:33:46;;;;;;;16.80;15.00;;;;;;;;;;5127725;27;20453;-76
2022/04/23 05:36:13;;;;;;;16.23;14.53;;;;;;;;;;5113263;28;20485;-77
2022/04/23 05:38:40;;;;;;;15.90;14.17;;;;;;;;;;5130110;27;20453;-75
2022/04/23 05:41:09;;;;;;;17.50;15.40;;;;;;;;;;5133262;27;20464;-76
2022/04/23 05:43:36;;;;;;;16.40;14.70;;;;;;;;;;5134120;27;20807;-76
2022/04/23 05:46:03;;;;;;;15.87;14.23;;;;;;;;;;5132147;27;20468;-77
2022/04/23 05:48:30;;;;;;;16.50;14.90;;;;;;;;;;5123446;27;20474;-76
2022/04/23 05:50:57;;;;;;;15.80;14.23;;;;;;;;;;5134838;27;20465;-77
2022/04/23 05:53:24;;;;;;;19.10;14.07;;;;;;;;;;5131115;27;20438;-76
2022/04/23 05:55:53;;;;;;;14.83;13.43;;;;;;;;;;5124079;27;20454;-77
2022/04/23 05:58:21;;;;;;;14.70;13.10;;;;;;;;;;5111508;28;20448;-76
2022/04/23 06:00:49;;;;;;;15.27;13.77;;;;;;;;;;5115818;27;20479;-76
2022/04/23 06:03:16;;;;;;;15.80;14.03;;;;;;;;;;5134194;27;20432;-77
2022/04/23 06:05:43;;;;;;;16.87;13.90;;;;;;;;;;5134856;27;20452;-76
2022/04/23 06:08:10;;;;;;;14.50;13.07;;;;;;;;;;5123537;27;20580;-76
2022/04/23 06:10:38;;;;;;;14.83;13.33;;;;;;;;;;5122750;27;20973;-76
2022/04/23 06:13:06;;;;;;;16.13;12.70;;;;;;;;;;5131007;27;20445;-75
2022/04/23 06:15:34;;;;;;;19.87;13.80;;;;;;;;;;5130673;27;20445;-77
2022/04/23 06:18:01;;;;;;;14.97;13.53;;;;;;;;;;5111645;28;20457;-76
2022/04/23 06:20:29;;;;;;;15.40;13.40;;;;;;;;;;5113150;28;20994;-74
2022/04/23 06:22:56;;;;;;;14.70;13.20;;;;;;;;;;5113836;28;20414;-76
2022/04/23 06:25:23;;;;;;;14.63;13.23;;;;;;;;;;5112622;28;20475;-76
2022/04/23 06:27:51;;;;;;;16.60;14.87;;;;;;;;;;5129494;27;20453;-76
2022/04/23 06:30:18;;;;;;;15.00;13.50;;;;;;;;;;5135156;27;20473;-75
2022/04/23 06:32:46;;;;;;;14.77;13.27;;;;;;;;;;5122619;27;20457;-75
2022/04/23 06:35:13;;;;;;;13.90;12.60;;;;;;;;;;5128821;27;20443;-75
2022/04/23 06:37:41;;;;;;;14.47;13.03;;;;;;;;;;5123024;27;20451;-77
2022/04/23 06:40:10;;;;;;;14.50;13.10;;;;;;;;;;5130037;27;20875;-76
2022/04/23 06:42:37;;;;;;;15.17;13.70;;;;;;;;;;5111755;28;20436;-76
2022/04/23 06:45:05;;;;;;;14.87;13.37;;;;;;;;;;5113176;28;20419;-77
2022/04/23 06:47:32;;;;;;;14.43;13.13;;;;;;;;;;5112883;28;20474;-76
2022/04/23 06:50:01;;;;;;;15.17;13.57;;;;;;;;;;5129900;27;20481;-76
2022/04/23 06:52:28;;;;;;;14.20;12.37;;;;;;;;;;5123026;27;20477;-76
2022/04/23 06:54:55;;;;;;;15.03;13.53;;;;;;;;;;5133963;27;20441;-76
2022/04/23 06:57:24;;;;;;;13.90;12.50;;;;;;;;;;5118502;27;20482;-75
2022/04/23 06:59:51;;;;;;;14.13;12.40;;;;;;;;;;5126061;27;20788;-75
2022/04/23 07:02:18;;;;;;;14.50;13.00;;;;;;;;;;5111608;27;21009;-76
2022/04/23 07:04:45;;;;;;;13.40;12.10;;;;;;;;;;5131345;27;20416;-75
2022/04/23 07:07:14;;;;;;;13.67;12.37;;;;;;;;;;5111077;28;20439;-75
2022/04/23 07:09:41;;;;;;;13.50;12.20;;;;;;;;;;5122273;27;20489;-77
2022/04/23 07:12:09;;;;;;;12.77;11.47;;;;;;;;;;5112794;28;20486;-76
2022/04/23 07:14:36;;;;;;;14.93;12.03;;;;;;;;;;5113952;28;20803;-74
2022/04/23 07:17:03;;;;;;;12.63;11.43;;;;;;;;;;5113726;28;20851;-74
2022/04/23 07:19:32;;;;;;;13.63;12.33;;;;;;;;;;5127327;27;20400;-74
2022/04/23 07:21:59;;;;;;;12.60;11.40;;;;;;;;;;5129685;27;20520;-75
2022/04/23 07:24:28;;;;;;;11.87;10.67;;;;;;;;;;5130471;27;20938;-76
2022/04/23 07:26:55;;;;;;;12.37;11.07;;;;;;;;;;5131800;27;20417;-75
2022/04/23 07:29:22;;;;;;;11.30;10.20;;;;;;;;;;5132867;27;20529;-75
2022/04/23 07:31:49;;;;;;;14.20;10.67;;;;;;;;;;5133200;27;20514;-75
2022/04/23 07:39:40;;;;;;;12.97;11.60;;;;;;;;;;5132888;27;20461;-75
2022/04/23 07:42:08;;;;;;;11.43;10.33;;;;;;;;;;5130517;28;20451;-77
2022/04/23 07:44:36;;;;;;;10.80;9.70;;;;;;;;;;5130129;28;20406;-77
2022/04/23 07:47:05;;;;;;;12.57;11.30;;;;;;;;;;5132014;28;20508;-76
2022/04/23 07:49:32;;;;;;;11.50;10.30;;;;;;;;;;5131706;28;20884;-79
2022/04/23 07:51:59;;;;;;;13.00;9.80;;;;;;;;;;5131248;28;20509;-77
2022/04/23 07:54:28;;;;;;;11.13;10.13;;;;;;;;;;5132808;28;20509;-76
2022/04/23 07:56:56;;;;;;;11.23;9.40;;;;;;;;;;5131905;28;20447;-75
2022/04/23 07:59:24;;;;;;;12.40;11.10;;;;;;;;;;5133982;28;20421;-78
2022/04/23 08:01:51;;;;;;;11.50;10.40;;;;;;;;;;5133717;28;20521;-75
2022/04/23 08:04:18;;;;;;;12.20;11.10;;;;;;;;;;5131600;28;20413;-76
2022/04/23 08:06:45;;;;;;;12.10;10.90;;;;;;;;;;5129451;28;20421;-76
2022/04/23 08:09:12;;;;;;;11.50;10.40;;;;;;;;;;5130794;28;20849;-75
2022/04/23 08:11:39;;;;;;;11.03;10.03;;;;;;;;;;5131819;28;21156;-75
2022/04/23 08:14:08;;;;;;;10.73;9.73;;;;;;;;;;5132172;28;20413;-75
2022/04/23 08:16:35;;;;;;;12.50;10.90;;;;;;;;;;5132299;28;20422;-75
2022/04/23 08:19:03;;;;;;;12.47;11.10;;;;;;;;;;5132276;28;20475;-74
2022/04/23 08:21:30;;;;;;;11.53;10.40;;;;;;;;;;5133131;28;20441;-75
2022/04/23 08:23:57;;;;;;;11.23;10.10;;;;;;;;;;5134189;28;20450;-75
2022/04/23 08:26:24;;;;;;;11.47;10.27;;;;;;;;;;5132204;28;20519;-75
2022/04/23 08:31:34;;;;;;;12.40;11.27;;;;;;;;;;5129791;28;20427;-76
2022/04/23 08:34:01;;;;;;;11.83;10.70;;;;;;;;;;5131822;28;20787;-74
2022/04/23 08:36:30;;;;;;;10.33;9.43;;;;;;;;;;5131731;28;20435;-75
2022/04/23 08:38:58;;;;;;;11.33;9.73;;;;;;;;;;5131816;28;20439;-75
2022/04/23 08:41:28;;;;;;;11.43;10.07;;;;;;;;;;5130842;28;20458;-75
2022/04/23 08:44:03;;;;;;;11.10;10.10;;;;;;;;;;5131975;28;20438;-75
2022/04/23 08:46:31;;;;;;;10.13;8.87;;;;;;;;;;5136147;27;20478;-75
2022/04/23 08:49:06;;;;;;;11.40;10.30;;;;;;;;;;5135770;27;20573;-76
2022/04/23 08:51:35;;;;;;;11.03;9.90;;;;;;;;;;5131706;27;20790;-75
2022/04/23 08:54:05;;;;;;;9.90;8.90;;;;;;;;;;5133361;27;20487;-78
2022/04/23 08:56:32;;;;;;;10.20;9.13;;;;;;;;;;5135090;27;20413;-75
2022/04/23 08:59:01;;;;;;;11.50;9.43;;;;;;;;;;5134699;27;21009;-73
2022/04/23 09:01:31;;;;;;;14.20;9.83;;;;;;;;;;5135163;27;20485;-74
2022/04/23 09:03:59;;;;;;;10.40;9.50;;;;;;;;;;5134165;27;20812;-74
2022/04/23 09:06:34;;;;;;;11.00;9.10;;;;;;;;;;5135469;27;20438;-74
2022/04/23 09:09:10;;;;;;;11.70;9.63;;;;;;;;;;5132403;27;21024;-74
2022/04/23 09:11:40;;;;;;;10.87;9.20;;;;;;;;;;5133065;27;20425;-74
2022/04/23 09:14:08;;;;;;;11.47;10.37;;;;;;;;;;5134253;27;20922;-74
2022/04/23 09:24:51;;;;;;;11.13;10.03;;;;;;;;;;5135284;27;20446;-74
2022/04/23 09:27:19;;;;;;;10.80;9.80;;;;;;;;;;5135487;27;20443;-74
2022/04/23 09:29:58;;;;;;;11.23;10.17;;;;;;;;;;5135319;27;20523;-74
2022/04/23 09:32:27;;;;;;;12.00;10.80;;;;;;;;;;5130567;27;20487;-74
2022/04/23 09:35:04;;;;;;;11.40;10.40;;;;;;;;;;5132834;27;20423;-74
2022/04/23 09:40:18;;;;;;;10.57;9.60;;;;;;;;;;5133440;27;20425;-74
2022/04/23 09:42:56;;;;;;;8.83;7.97;;;;;;;;;;5134696;27;20409;-74
2022/04/23 09:45:27;;;;;;;9.40;8.50;;;;;;;;;;5134699;27;20973;-74
2022/04/23 09:47:54;;;;;;;8.90;8.07;;;;;;;;;;5115832;28;20412;-75
2022/04/23 09:50:21;;;;;;;9.43;8.53;;;;;;;;;;5115502;28;20475;-74
2022/04/23 09:52:50;;;;;;;10.57;9.57;;;;;;;;;;5124742;27;20416;-74
2022/04/23 09:55:18;;;;;;;11.20;9.00;;;;;;;;;;5131752;27;20408;-74
2022/04/23 09:57:46;;;;;;;9.17;8.33;;;;;;;;;;5132556;27;20417;-74
2022/04/23 10:00:14;;;;;;;10.20;9.10;;;;;;;;;;5133699;27;20412;-74
2022/04/23 10:02:43;;;;;;;9.70;8.80;;;;;;;;;;5133747;27;20416;-74
2022/04/23 10:05:11;;;;;;;8.73;7.93;;;;;;;;;;5134299;27;20768;-74
2022/04/23 10:07:41;;;;;;;9.27;8.07;;;;;;;;;;5134089;27;20963;-74
2022/04/23 10:10:13;;;;;;;9.30;8.40;;;;;;;;;;5133286;27;20473;-74
2022/04/23 10:12:40;;;;;;;9.20;8.30;;;;;;;;;;5131446;27;20487;-74
2022/04/23 10:15:08;;;;;;;9.27;8.37;;;;;;;;;;5131902;27;20409;-74
2022/04/23 10:17:36;;;;;;;9.53;8.60;;;;;;;;;;5133872;27;20424;-74
2022/04/23 10:20:05;;;;;;;8.70;7.90;;;;;;;;;;5133724;27;20818;-75
2022/04/23 10:22:36;;;;;;;9.33;8.50;;;;;;;;;;5133867;27;20423;-74
2022/04/23 10:25:22;;;;;;;9.70;8.80;;;;;;;;;;5134024;27;20474;-74
2022/04/23 10:27:51;;;;;;;9.30;8.13;;;;;;;;;;5134622;27;20443;-74
2022/04/23 10:30:18;;;;;;;9.60;8.70;;;;;;;;;;5135521;27;20453;-74
2022/04/23 10:32:45;;;;;;;10.80;9.00;;;;;;;;;;5134056;27;20410;-74
2022/04/23 10:35:27;;;;;;;8.73;7.87;;;;;;;;;;5131134;27;20523;-75
2022/04/23 10:37:54;;;;;;;11.10;10.00;;;;;;;;;;5131631;27;20415;-74
2022/04/23 10:40:22;;;;;;;9.77;8.77;;;;;;;;;;5133149;27;20480;-74
2022/04/23 10:43:04;;;;;;;10.00;8.97;;;;;;;;;;5133375;27;20438;-76
2022/04/23 10:45:34;;;;;;;9.00;8.10;;;;;;;;;;5132453;27;20919;-74
2022/04/23 10:48:16;;;;;;;8.87;8.03;;;;;;;;;;5133348;27;20461;-74
2022/04/23 10:50:59;;;;;;;8.90;8.07;;;;;;;;;;5133313;27;20544;-74
2022/04/23 10:53:28;;;;;;;9.07;8.17;;;;;;;;;;5135248;27;20449;-74
2022/04/23 10:56:10;;;;;;;9.70;8.70;;;;;;;;;;5132408;27;20446;-74
2022/04/23 10:58:40;;;;;;;14.37;9.13;;;;;;;;;;5129374;27;20400;-74
2022/04/23 11:01:22;;;;;;;8.90;8.10;;;;;;;;;;5132036;27;21147;-74
2022/04/23 11:04:04;;;;;;;11.20;9.23;;;;;;;;;;5131587;27;20440;-74
2022/04/23 11:12:22;;;;;;;9.70;8.80;;;;;;;;;;5133162;27;20434;-74
2022/04/23 11:14:53;;;;;;;11.07;9.37;;;;;;;;;;5135139;27;20469;-74
2022/04/23 11:17:23;;;;;;;10.70;9.70;;;;;;;;;;5133688;27;20497;-73
2022/04/23 11:19:52;;;;;;;9.87;7.77;;;;;;;;;;5130049;27;20398;-74
2022/04/23 11:22:21;;;;;;;10.43;9.40;;;;;;;;;;5130629;27;20839;-74
2022/04/23 11:24:49;;;;;;;13.53;9.60;;;;;;;;;;5132415;27;20448;-73
2022/04/23 11:27:32;;;;;;;10.57;9.57;;;;;;;;;;5131254;27;20409;-73
2022/04/23 11:30:00;;;;;;;11.23;9.77;;;;;;;;;;5116559;27;20471;-73
2022/04/23 11:32:27;;;;;;;9.97;8.97;;;;;;;;;;5132459;27;20518;-73
2022/04/23 11:34:56;;;;;;;11.07;9.97;;;;;;;;;;5131369;27;20436;-74
2022/04/23 11:37:30;;;;;;;11.00;9.90;;;;;;;;;;5130138;27;20775;-73
2022/04/23 11:40:05;;;;;;;10.70;9.20;;;;;;;;;;5130827;27;20414;-74
2022/04/23 11:42:40;;;;;;;10.23;8.67;;;;;;;;;;5132194;27;20561;-73
2022/04/23 11:45:08;;;;;;;9.60;8.70;;;;;;;;;;5132501;28;20420;-74
2022/04/23 11:47:35;;;;;;;7.80;7.10;;;;;;;;;;5132690;28;20465;-74
2022/04/23 11:50:10;;;;;;;9.70;8.80;;;;;;;;;;5132512;28;20450;-74
2022/04/23 11:52:39;;;;;;;9.87;8.80;;;;;;;;;;5132556;28;20807;-73
2022/04/23 11:55:08;;;;;;;9.70;8.80;;;;;;;;;;5132991;28;20424;-74
2022/04/23 11:57:36;;;;;;;8.87;8.00;;;;;;;;;;5132491;28;20450;-75
2022/04/23 12:00:04;;;;;;;10.30;8.67;;;;;;;;;;5129584;28;20525;-74
2022/04/23 12:02:33;;;;;;;9.97;8.93;;;;;;;;;;5130706;28;21113;-73
2022/04/23 12:05:02;;;;;;;10.50;8.53;;;;;;;;;;5130814;28;20923;-73
2022/04/23 12:07:29;;;;;;;8.87;8.00;;;;;;;;;;5130935;28;20480;-74
2022/04/23 12:09:59;;;;;;;9.77;8.53;;;;;;;;;;5132364;28;20480;-74
2022/04/23 12:12:26;;;;;;;8.93;8.13;;;;;;;;;;5130912;28;20506;-74
2022/04/23 12:14:54;;;;;;;8.87;8.00;;;;;;;;;;5133451;27;20588;-73
2022/04/23 12:17:22;;;;;;;7.83;7.07;;;;;;;;;;5134131;28;20451;-73
2022/04/23 12:19:49;;;;;;;8.90;7.20;;;;;;;;;;5134396;27;20777;-74
2022/04/23 12:22:25;;;;;;;8.33;7.00;;;;;;;;;;5133343;27;20793;-74
2022/04/23 12:24:53;;;;;;;9.47;8.50;;;;;;;;;;5133166;27;20460;-74
2022/04/23 12:27:21;;;;;;;10.00;8.83;;;;;;;;;;5136155;27;20802;-73
2022/04/23 12:40:46;;;;;;;10.27;9.20;;;;;;;;;;5136940;27;20768;-75
2022/04/23 12:43:22;;;;;;;9.50;8.53;;;;;;;;;;5134427;27;20414;-74
2022/04/23 12:45:49;;;;;;;10.00;9.00;;;;;;;;;;5133308;27;20407;-74
2022/04/23 12:48:17;;;;;;;12.17;9.00;;;;;;;;;;5134475;27;20444;-73
2022/04/23 12:50:46;;;;;;;10.17;9.17;;;;;;;;;;5135120;27;20569;-74
2022/04/23 12:53:13;;;;;;;9.43;8.43;;;;;;;;;;5134411;27;20497;-74
2022/04/23 12:55:51;;;;;;;10.73;9.60;;;;;;;;;;5134448;27;20422;-74
2022/04/23 12:58:18;;;;;;;11.40;10.30;;;;;;;;;;5135345;27;20846;-75
2022/04/23 13:00:47;;;;;;;10.20;9.20;;;;;;;;;;5136682;27;20484;-75
2022/04/23 13:03:23;;;;;;;10.87;9.70;;;;;;;;;;5134036;27;20426;-74
2022/04/23 13:05:50;;;;;;;10.80;9.80;;;;;;;;;;5132142;27;20968;-75
2022/04/23 13:11:24;;;;;;;11.27;10.17;;;;;;;;;;5120068;27;20454;-73
2022/04/23 13:13:46;;;;;;;11.50;10.40;;;;;;;;;;5117597;27;20424;-75
2022/04/23 13:16:15;;;;;;;12.23;10.80;;;;;;;;;;5115948;27;20416;-73
2022/04/23 13:18:42;;;;;;;10.30;9.30;;;;;;;;;;5121755;27;20793;-77
2022/04/23 13:21:09;;;;;;;11.67;10.57;;;;;;;;;;5136072;27;20538;-78
2022/04/23 13:23:36;;;;;;;11.33;10.23;;;;;;;;;;5129951;27;20958;-78
2022/04/23 13:26:04;;;;;;;11.10;10.00;;;;;;;;;;5118262;27;21004;-77
2022/04/23 13:28:31;;;;;;;12.83;11.43;;;;;;;;;;5132314;27;20433;-76
2022/04/23 13:30:58;;;;;;;10.13;9.13;;;;;;;;;;5132056;27;20451;-81
2022/04/23 13:33:27;;;;;;;12.00;10.80;;;;;;;;;;5139490;27;20517;-76
2022/04/23 13:35:54;;;;;;;13.60;10.70;;;;;;;;;;5119886;27;20425;-76
2022/04/23 13:38:21;;;;;;;12.30;11.00;;;;;;;;;;5119047;27;20423;-75
2022/04/23 13:40:49;;;;;;;12.20;10.27;;;;;;;;;;5133314;27;20441;-75
2022/04/23 13:43:17;;;;;;;12.47;10.87;;;;;;;;;;5132483;27;20459;-75
2022/04/23 13:45:44;;;;;;;12.23;11.03;;;;;;;;;;5136473;27;20419;-75
2022/04/23 13:48:11;;;;;;;16.90;14.10;;;;;;;;;;5125277;27;20448;-74
2022/04/23 13:50:40;;;;;;;15.47;11.50;;;;;;;;;;5131125;27;20446;-75
2022/04/23 13:53:07;;;;;;;13.50;12.17;;;;;;;;;;5131596;27;20992;-76
2022/04/23 13:55:35;;;;;;;15.30;13.67;;;;;;;;;;5133000;27;20965;-75
2022/04/23 13:58:02;;;;;;;15.50;11.50;;;;;;;;;;5118107;27;20489;-74
2022/04/23 14:00:29;;;;;;;13.37;12.07;;;;;;;;;;5114938;27;20463;-74
2022/04/23 14:11:00;;;;;;;14.60;12.27;;;;;;;;;;5118047;27;20447;-76
2022/04/23 14:13:28;;;;;;;18.87;11.47;;;;;;;;;;5133206;27;20447;-75
2022/04/23 14:15:55;;;;;;;12.50;11.30;;;;;;;;;;5130953;27;20407;-75
2022/04/23 14:18:22;;;;;;;10.73;9.63;;;;;;;;;;5132756;27;20438;-74
2022/04/23 14:20:49;;;;;;;11.70;10.53;;;;;;;;;;5129996;27;20435;-76
2022/04/23 14:23:16;;;;;;;15.40;12.10;;;;;;;;;;5113578;28;20419;-78
2022/04/23 14:25:46;;;;;;;12.20;11.00;;;;;;;;;;5116602;27;20736;-75
2022/04/23 14:28:14;;;;;;;12.80;11.50;;;;;;;;;;5132217;27;20424;-77
2022/04/23 14:30:41;;;;;;;11.53;10.37;;;;;;;;;;5114398;27;20458;-76
2022/04/23 14:33:08;;;;;;;12.50;11.20;;;;;;;;;;5130170;27;20415;-78
2022/04/23 14:35:37;;;;;;;11.97;10.77;;;;;;;;;;5130103;27;20439;-77
2022/04/23 14:38:04;;;;;;;13.47;10.77;;;;;;;;;;5133035;27;20442;-75
2022/04/23 14:40:32;;;;;;;11.47;10.27;;;;;;;;;;5120732;27;20440;-76
2022/04/23 14:43:01;;;;;;;15.20;10.00;;;;;;;;;;5112423;28;20441;-74
2022/04/23 14:45:30;;;;;;;11.40;10.20;;;;;;;;;;5124250;27;20417;-78
2022/04/23 14:47:57;;;;;;;10.73;9.60;;;;;;;;;;5131358;27;20539;-78
2022/04/23 14:50:25;;;;;;;11.03;10.03;;;;;;;;;;5121361;27;20468;-78
2022/04/23 14:55:34;;;;;;;10.77;9.70;;;;;;;;;;5129935;27;20520;-79
2022/04/23 14:58:02;;;;;;;10.60;9.60;;;;;;;;;;5129759;27;20923;-78
2022/04/23 15:00:29;;;;;;;10.73;9.73;;;;;;;;;;5129863;27;20431;-77
2022/04/23 15:02:57;;;;;;;9.97;9.07;;;;;;;;;;5132694;27;20407;-76
2022/04/23 15:05:24;;;;;;;11.33;10.13;;;;;;;;;;5131684;27;20449;-77
2022/04/23 15:07:52;;;;;;;10.87;9.77;;;;;;;;;;5127663;27;20476;-76
2022/04/23 15:10:20;;;;;;;11.20;8.13;;;;;;;;;;5110968;27;20456;-76
2022/04/23 15:12:47;;;;;;;10.23;9.20;;;;;;;;;;5124139;27;20800;-77
2022/04/23 15:15:15;;;;;;;11.60;9.33;;;;;;;;;;5134611;27;20408;-77
2022/04/23 15:17:43;;;;;;;11.17;10.07;;;;;;;;;;5132629;27;20421;-77
2022/04/23 15:20:11;;;;;;;12.90;10.40;;;;;;;;;;5130173;27;20843;-76